sensor_id;sensor_type;location;lat;lon;timestamp;pressure;altitude;pressure_sealevel;temperature;humidity
14242;BME280;7205;50.864;12.766;2022-12-18T00:02:07;98969.59;;;-4.82;66.75
14242;BME280;7205;50.864;12.766;2022-12-18T00:04:36;98977.38;;;-4.84;66.32
14242;BME280;7205;50.864;12.766;2022-12-18T00:07:03;98973.16;;;-4.86;66.88
14242;BME280;7205;50.864;12.766;2022-12-18T00:09:29;98972.31;;;-4.87;66.62
14242;BME280;7205;50.864;12.766;2022-12-18T00:11:56;98969.69;;;-4.85;67.10
14242;BME280;7205;50.864;12.766;2022-12-18T00:14:24;98970.56;;;-4.86;67.34
14242;BME280;7205;50.864;12.766;2022-12-18T00:16:51;98965.47;;;-4.88;67.19
14242;BME280;7205;50.864;12.766;2022-12-18T00:19:18;98974.06;;;-4.87;66.82
14242;BME280;7205;50.864;12.766;2022-12-18T00:21:45;98977.56;;;-4.90;67.08
14242;BME280;7205;50.864;12.766;2022-12-18T00:24:12;98970.84;;;-4.95;66.63
14242;BME280;7205;50.864;12.766;2022-12-18T00:26:39;98975.22;;;-4.97;66.71
14242;BME280;7205;50.864;12.766;2022-12-18T00:29:08;98974.44;;;-4.99;66.71
14242;BME280;7205;50.864;12.766;2022-12-18T00:31:38;98983.97;;;-5.03;66.83
14242;BME280;7205;50.864;12.766;2022-12-18T00:34:05;98983.16;;;-5.05;67.04
14242;BME280;7205;50.864;12.766;2022-12-18T00:36:33;98982.31;;;-5.04;67.02
14242;BME280;7205;50.864;12.766;2022-12-18T00:39:02;98992.63;;;-5.05;66.72
14242;BME280;7205;50.864;12.766;2022-12-18T00:41:29;98994.47;;;-5.09;66.97
14242;BME280;7205;50.864;12.766;2022-12-18T00:44:15;99003.16;;;-5.13;66.50
14242;BME280;7205;50.864;12.766;2022-12-18T00:46:44;98994.78;;;-5.20;66.61
14242;BME280;7205;50.864;12.766;2022-12-18T00:49:11;98994.78;;;-5.20;66.76
14242;BME280;7205;50.864;12.766;2022-12-18T00:51:38;98996.56;;;-5.22;67.07
14242;BME280;7205;50.864;12.766;2022-12-18T00:54:05;98993.19;;;-5.24;66.93
14242;BME280;7205;50.864;12.766;2022-12-18T00:56:32;98993.22;;;-5.25;66.57
14242;BME280;7205;50.864;12.766;2022-12-18T00:58:59;98995.84;;;-5.27;66.59
14242;BME280;7205;50.864;12.766;2022-12-18T01:01:25;98995.94;;;-5.30;67.07
14242;BME280;7205;50.864;12.766;2022-12-18T01:03:54;98996.00;;;-5.31;66.52
14242;BME280;7205;50.864;12.766;2022-12-18T01:06:23;98996.03;;;-5.33;66.87
14242;BME280;7205;50.864;12.766;2022-12-18T01:08:50;98988.38;;;-5.36;66.90
14242;BME280;7205;50.864;12.766;2022-12-18T01:11:18;98990.19;;;-5.39;66.39
14242;BME280;7205;50.864;12.766;2022-12-18T01:13:45;98999.66;;;-5.40;66.89
14242;BME280;7205;50.864;12.766;2022-12-18T01:16:13;98996.28;;;-5.42;66.37
14242;BME280;7205;50.864;12.766;2022-12-18T01:18:39;98997.25;;;-5.46;66.45
14242;BME280;7205;50.864;12.766;2022-12-18T01:21:09;99004.16;;;-5.46;66.14
14242;BME280;7205;50.864;12.766;2022-12-18T01:23:36;99006.78;;;-5.48;66.05
14242;BME280;7205;50.864;12.766;2022-12-18T01:26:07;99009.41;;;-5.51;66.12
14242;BME280;7205;50.864;12.766;2022-12-18T01:28:34;99014.59;;;-5.52;66.35
14242;BME280;7205;50.864;12.766;2022-12-18T01:31:16;99008.63;;;-5.54;66.37
14242;BME280;7205;50.864;12.766;2022-12-18T01:33:44;99013.88;;;-5.57;65.98
14242;BME280;7205;50.864;12.766;2022-12-18T01:36:21;99014.81;;;-5.60;65.85
14242;BME280;7205;50.864;12.766;2022-12-18T01:38:49;99010.53;;;-5.61;66.20
14242;BME280;7205;50.864;12.766;2022-12-18T01:41:19;99013.13;;;-5.61;65.87
14242;BME280;7205;50.864;12.766;2022-12-18T01:43:51;99015.72;;;-5.62;66.40
14242;BME280;7205;50.864;12.766;2022-12-18T01:46:21;99016.69;;;-5.65;66.17
14242;BME280;7205;50.864;12.766;2022-12-18T01:48:54;99022.69;;;-5.66;66.03
14242;BME280;7205;50.864;12.766;2022-12-18T01:51:23;99029.63;;;-5.68;66.52
14242;BME280;7205;50.864;12.766;2022-12-18T01:53:50;99029.63;;;-5.68;66.18
14242;BME280;7205;50.864;12.766;2022-12-18T01:56:19;99040.72;;;-5.67;66.43
14242;BME280;7205;50.864;12.766;2022-12-18T01:58:54;99028.78;;;-5.68;66.14
14242;BME280;7205;50.864;12.766;2022-12-18T02:01:23;99038.22;;;-5.69;66.10
14242;BME280;7205;50.864;12.766;2022-12-18T02:03:51;99028.78;;;-5.68;65.92
14242;BME280;7205;50.864;12.766;2022-12-18T02:06:20;99032.22;;;-5.69;66.06
14242;BME280;7205;50.864;12.766;2022-12-18T02:09:01;99031.44;;;-5.71;65.96
14242;BME280;7205;50.864;12.766;2022-12-18T02:11:39;99035.75;;;-5.73;65.87
14242;BME280;7205;50.864;12.766;2022-12-18T02:14:18;99039.22;;;-5.74;65.76
14242;BME280;7205;50.864;12.766;2022-12-18T02:16:52;99041.81;;;-5.76;65.53
14242;BME280;7205;50.864;12.766;2022-12-18T02:19:39;99040.09;;;-5.75;65.61
14242;BME280;7205;50.864;12.766;2022-12-18T02:22:18;99039.28;;;-5.77;65.88
14242;BME280;7205;50.864;12.766;2022-12-18T02:24:57;99038.44;;;-5.76;65.85
14242;BME280;7205;50.864;12.766;2022-12-18T02:27:29;99034.16;;;-5.77;65.76
14242;BME280;7205;50.864;12.766;2022-12-18T02:29:59;99035.09;;;-5.80;65.70
14242;BME280;7205;50.864;12.766;2022-12-18T02:32:31;99037.72;;;-5.81;65.69
14242;BME280;7205;50.864;12.766;2022-12-18T02:35:03;99036.16;;;-5.87;65.39
14242;BME280;7205;50.864;12.766;2022-12-18T02:37:35;99038.78;;;-5.88;65.29
14242;BME280;7205;50.864;12.766;2022-12-18T02:40:07;99033.69;;;-5.90;65.27
14242;BME280;7205;50.864;12.766;2022-12-18T02:42:38;99031.09;;;-5.90;65.87
14242;BME280;7205;50.864;12.766;2022-12-18T02:45:07;99030.22;;;-5.89;65.64
14242;BME280;7205;50.864;12.766;2022-12-18T02:47:38;99021.66;;;-5.89;65.45
14242;BME280;7205;50.864;12.766;2022-12-18T02:50:11;99016.56;;;-5.91;65.37
14242;BME280;7205;50.864;12.766;2022-12-18T02:52:48;99026.88;;;-5.92;65.10
14242;BME280;7205;50.864;12.766;2022-12-18T02:55:28;99023.50;;;-5.94;65.13
14242;BME280;7205;50.864;12.766;2022-12-18T02:58:10;99026.06;;;-5.94;65.08
14242;BME280;7205;50.864;12.766;2022-12-18T03:00:42;99027.91;;;-5.98;64.91
14242;BME280;7205;50.864;12.766;2022-12-18T03:03:19;99031.38;;;-6.00;65.25
14242;BME280;7205;50.864;12.766;2022-12-18T03:05:53;99030.56;;;-6.02;65.29
14242;BME280;7205;50.864;12.766;2022-12-18T03:08:24;99030.63;;;-6.04;65.17
14242;BME280;7205;50.864;12.766;2022-12-18T03:10:59;99022.91;;;-6.04;64.93
14242;BME280;7205;50.864;12.766;2022-12-18T03:13:32;99018.75;;;-6.09;65.49
14242;BME280;7205;50.864;12.766;2022-12-18T03:16:02;99023.84;;;-6.06;65.04
14242;BME280;7205;50.864;12.766;2022-12-18T03:18:36;99023.00;;;-6.07;65.40
14242;BME280;7205;50.864;12.766;2022-12-18T03:21:08;99026.44;;;-6.08;65.01
14242;BME280;7205;50.864;12.766;2022-12-18T03:23:40;99030.75;;;-6.08;65.04
14242;BME280;7205;50.864;12.766;2022-12-18T03:26:12;99028.25;;;-6.11;64.72
14242;BME280;7205;50.864;12.766;2022-12-18T03:28:49;99028.25;;;-6.11;65.13
14242;BME280;7205;50.864;12.766;2022-12-18T03:31:20;99032.63;;;-6.15;65.05
14242;BME280;7205;50.864;12.766;2022-12-18T03:33:52;99034.44;;;-6.18;64.49
14242;BME280;7205;50.864;12.766;2022-12-18T03:36:24;99037.13;;;-6.23;64.57
14242;BME280;7205;50.864;12.766;2022-12-18T03:38:51;99038.88;;;-6.25;64.53
14242;BME280;7205;50.864;12.766;2022-12-18T03:41:28;99041.59;;;-6.31;64.31
14242;BME280;7205;50.864;12.766;2022-12-18T03:44:29;99040.03;;;-6.36;64.35
14242;BME280;7205;50.864;12.766;2022-12-18T03:47:07;99042.69;;;-6.41;64.23
14242;BME280;7205;50.864;12.766;2022-12-18T03:49:42;99047.00;;;-6.41;64.34
14242;BME280;7205;50.864;12.766;2022-12-18T03:52:25;99052.19;;;-6.43;64.09
14242;BME280;7205;50.864;12.766;2022-12-18T03:54:55;99050.56;;;-6.47;64.14
14242;BME280;7205;50.864;12.766;2022-12-18T03:57:28;99056.63;;;-6.51;64.11
14242;BME280;7205;50.864;12.766;2022-12-18T04:00:04;99048.06;;;-6.50;63.77
14242;BME280;7205;50.864;12.766;2022-12-18T04:02:42;99054.06;;;-6.51;64.18
14242;BME280;7205;50.864;12.766;2022-12-18T04:05:14;99050.72;;;-6.53;64.14
14242;BME280;7205;50.864;12.766;2022-12-18T04:07:44;99043.75;;;-6.50;64.47
14242;BME280;7205;50.864;12.766;2022-12-18T04:10:13;99046.31;;;-6.48;64.66
14242;BME280;7205;50.864;12.766;2022-12-18T04:12:42;99045.41;;;-6.47;64.72
14242;BME280;7205;50.864;12.766;2022-12-18T04:15:13;99048.84;;;-6.47;64.55
14242;BME280;7205;50.864;12.766;2022-12-18T04:17:47;99062.47;;;-6.45;64.47
14242;BME280;7205;50.864;12.766;2022-12-18T04:20:17;99050.56;;;-6.47;64.66
14242;BME280;7205;50.864;12.766;2022-12-18T04:22:47;99049.69;;;-6.48;64.35
14242;BME280;7205;50.864;12.766;2022-12-18T04:25:14;99059.97;;;-6.48;64.78
14242;BME280;7205;50.864;12.766;2022-12-18T04:27:56;99060.88;;;-6.49;64.35
14242;BME280;7205;50.864;12.766;2022-12-18T04:30:25;99066.06;;;-6.52;64.11
14242;BME280;7205;50.864;12.766;2022-12-18T04:32:52;99065.31;;;-6.55;63.92
14242;BME280;7205;50.864;12.766;2022-12-18T04:35:20;99067.06;;;-6.57;63.89
14242;BME280;7205;50.864;12.766;2022-12-18T04:37:47;99066.19;;;-6.58;64.01
14242;BME280;7205;50.864;12.766;2022-12-18T04:40:14;99065.38;;;-6.58;64.38
14242;BME280;7205;50.864;12.766;2022-12-18T04:42:45;99060.25;;;-6.60;64.49
14242;BME280;7205;50.864;12.766;2022-12-18T04:45:11;99060.28;;;-6.61;64.28
14242;BME280;7205;50.864;12.766;2022-12-18T04:47:40;99065.41;;;-6.61;64.43
14242;BME280;7205;50.864;12.766;2022-12-18T04:50:07;99052.66;;;-6.64;64.34
14242;BME280;7205;50.864;12.766;2022-12-18T04:52:35;99050.97;;;-6.65;64.25
14242;BME280;7205;50.864;12.766;2022-12-18T04:55:02;99056.97;;;-6.66;64.18
14242;BME280;7205;50.864;12.766;2022-12-18T04:57:29;99055.31;;;-6.67;63.92
14242;BME280;7205;50.864;12.766;2022-12-18T04:59:56;99051.06;;;-6.68;64.10
14242;BME280;7205;50.864;12.766;2022-12-18T05:02:23;99048.50;;;-6.70;64.26
14242;BME280;7205;50.864;12.766;2022-12-18T05:04:52;99055.41;;;-6.72;64.02
14242;BME280;7205;50.864;12.766;2022-12-18T05:07:19;99042.66;;;-6.76;63.74
14242;BME280;7205;50.864;12.766;2022-12-18T05:09:46;99058.03;;;-6.75;63.97
14242;BME280;7205;50.864;12.766;2022-12-18T05:12:12;99062.38;;;-6.77;63.54
14242;BME280;7205;50.864;12.766;2022-12-18T05:14:39;99066.66;;;-6.77;63.57
14242;BME280;7205;50.864;12.766;2022-12-18T05:17:09;99070.97;;;-6.79;63.42
14242;BME280;7205;50.864;12.766;2022-12-18T05:19:37;99065.06;;;-6.83;63.80
14242;BME280;7205;50.864;12.766;2022-12-18T05:22:06;99066.78;;;-6.82;63.38
14242;BME280;7205;50.864;12.766;2022-12-18T05:24:34;99066.81;;;-6.85;63.68
14242;BME280;7205;50.864;12.766;2022-12-18T05:27:00;99069.38;;;-6.85;64.08
14242;BME280;7205;50.864;12.766;2022-12-18T05:29:27;99066.81;;;-6.85;63.57
14242;BME280;7205;50.864;12.766;2022-12-18T05:31:54;99071.16;;;-6.87;63.99
14242;BME280;7205;50.864;12.766;2022-12-18T05:34:21;99069.53;;;-6.91;63.95
14242;BME280;7205;50.864;12.766;2022-12-18T05:36:48;99070.31;;;-6.87;63.65
14242;BME280;7205;50.864;12.766;2022-12-18T05:39:16;99061.75;;;-6.88;63.74
14242;BME280;7205;50.864;12.766;2022-12-18T05:41:43;99047.25;;;-6.89;63.72
14242;BME280;7205;50.864;12.766;2022-12-18T05:44:09;99060.09;;;-6.89;63.90
14242;BME280;7205;50.864;12.766;2022-12-18T05:46:36;99058.38;;;-6.90;63.64
14242;BME280;7205;50.864;12.766;2022-12-18T05:49:06;99071.25;;;-6.91;63.83
14242;BME280;7205;50.864;12.766;2022-12-18T05:51:32;99072.09;;;-6.91;63.70
14242;BME280;7205;50.864;12.766;2022-12-18T05:53:59;99077.22;;;-6.91;63.95
14242;BME280;7205;50.864;12.766;2022-12-18T05:56:27;99067.88;;;-6.93;64.04
14242;BME280;7205;50.864;12.766;2022-12-18T05:58:54;99077.31;;;-6.94;63.93
14242;BME280;7205;50.864;12.766;2022-12-18T06:01:24;99088.41;;;-6.95;63.71
14242;BME280;7205;50.864;12.766;2022-12-18T06:03:51;99094.47;;;-6.97;63.90
14242;BME280;7205;50.864;12.766;2022-12-18T06:06:23;99091.09;;;-6.99;64.06
14242;BME280;7205;50.864;12.766;2022-12-18T06:08:52;99093.63;;;-6.98;64.01
14242;BME280;7205;50.864;12.766;2022-12-18T06:11:20;99107.34;;;-6.99;63.87
14242;BME280;7205;50.864;12.766;2022-12-18T06:13:51;99104.78;;;-6.99;63.77
14242;BME280;7205;50.864;12.766;2022-12-18T06:16:18;99113.31;;;-6.97;63.95
14242;BME280;7205;50.864;12.766;2022-12-18T06:18:45;99105.63;;;-7.00;63.91
14242;BME280;7205;50.864;12.766;2022-12-18T06:21:12;99105.66;;;-7.01;63.77
14242;BME280;7205;50.864;12.766;2022-12-18T06:23:39;99110.78;;;-7.00;64.28
14242;BME280;7205;50.864;12.766;2022-12-18T06:26:06;99107.38;;;-7.00;64.47
14242;BME280;7205;50.864;12.766;2022-12-18T06:28:33;99100.53;;;-7.01;64.09
14242;BME280;7205;50.864;12.766;2022-12-18T06:31:02;99102.25;;;-7.00;64.26
14242;BME280;7205;50.864;12.766;2022-12-18T06:33:29;99108.19;;;-7.00;64.25
14242;BME280;7205;50.864;12.766;2022-12-18T06:36:00;99104.81;;;-7.00;64.28
14242;BME280;7205;50.864;12.766;2022-12-18T06:38:27;99111.66;;;-7.01;64.16
14242;BME280;7205;50.864;12.766;2022-12-18T06:40:54;99111.63;;;-6.99;64.22
14242;BME280;7205;50.864;12.766;2022-12-18T06:43:20;99104.84;;;-7.02;64.48
14242;BME280;7205;50.864;12.766;2022-12-18T06:45:47;99109.13;;;-7.02;64.19
14242;BME280;7205;50.864;12.766;2022-12-18T06:48:19;99112.59;;;-7.03;64.11
14242;BME280;7205;50.864;12.766;2022-12-18T06:50:46;99118.56;;;-7.04;64.46
14242;BME280;7205;50.864;12.766;2022-12-18T06:53:13;99114.28;;;-7.04;64.56
14242;BME280;7205;50.864;12.766;2022-12-18T06:55:40;99113.44;;;-7.04;64.46
14242;BME280;7205;50.864;12.766;2022-12-18T06:58:07;99111.75;;;-7.05;64.17
14242;BME280;7205;50.864;12.766;2022-12-18T07:00:34;99115.13;;;-7.02;64.50
14242;BME280;7205;50.864;12.766;2022-12-18T07:03:01;99102.31;;;-7.05;64.51
14242;BME280;7205;50.864;12.766;2022-12-18T07:05:29;99103.19;;;-7.04;64.65
14242;BME280;7205;50.864;12.766;2022-12-18T07:07:56;99105.75;;;-7.04;64.31
14242;BME280;7205;50.864;12.766;2022-12-18T07:10:23;99102.31;;;-7.03;64.21
14242;BME280;7205;50.864;12.766;2022-12-18T07:12:50;99102.34;;;-7.06;64.28
14242;BME280;7205;50.864;12.766;2022-12-18T07:15:16;99105.81;;;-7.07;64.50
14242;BME280;7205;50.864;12.766;2022-12-18T07:17:43;99107.56;;;-7.09;64.24
14242;BME280;7205;50.864;12.766;2022-12-18T07:20:10;99106.66;;;-7.07;64.42
14242;BME280;7205;50.864;12.766;2022-12-18T07:22:39;99108.38;;;-7.07;64.40
14242;BME280;7205;50.864;12.766;2022-12-18T07:25:07;99109.19;;;-7.05;64.52
14242;BME280;7205;50.864;12.766;2022-12-18T07:27:34;99115.97;;;-7.03;64.08
14242;BME280;7205;50.864;12.766;2022-12-18T07:30:05;99109.09;;;-7.01;64.06
14242;BME280;7205;50.864;12.766;2022-12-18T07:32:32;99119.25;;;-6.96;64.42
14242;BME280;7205;50.864;12.766;2022-12-18T07:34:58;99126.03;;;-6.92;64.58
14242;BME280;7205;50.864;12.766;2022-12-18T07:37:25;99126.00;;;-6.91;64.48
14242;BME280;7205;50.864;12.766;2022-12-18T07:39:53;99131.91;;;-6.87;64.88
14242;BME280;7205;50.864;12.766;2022-12-18T07:42:20;99133.53;;;-6.83;65.14
14242;BME280;7205;50.864;12.766;2022-12-18T07:45:00;99133.47;;;-6.80;64.92
14242;BME280;7205;50.864;12.766;2022-12-18T07:47:28;99136.81;;;-6.77;65.09
14242;BME280;7205;50.864;12.766;2022-12-18T07:49:59;99135.91;;;-6.74;65.11
14242;BME280;7205;50.864;12.766;2022-12-18T07:52:26;99139.22;;;-6.69;65.09
14242;BME280;7205;50.864;12.766;2022-12-18T07:54:54;99133.19;;;-6.67;64.82
14242;BME280;7205;50.864;12.766;2022-12-18T07:57:24;99146.72;;;-6.60;65.05
14242;BME280;7205;50.864;12.766;2022-12-18T07:59:51;99131.28;;;-6.59;65.00
14242;BME280;7205;50.864;12.766;2022-12-18T08:02:17;99127.78;;;-6.56;65.49
14242;BME280;7205;50.864;12.766;2022-12-18T08:04:46;99131.94;;;-6.51;65.41
14242;BME280;7205;50.864;12.766;2022-12-18T08:07:14;99143.75;;;-6.42;65.48
14242;BME280;7205;50.864;12.766;2022-12-18T08:09:41;99143.72;;;-6.40;65.27
14242;BME280;7205;50.864;12.766;2022-12-18T08:12:11;99142.72;;;-6.35;65.66
14242;BME280;7205;50.864;12.766;2022-12-18T08:14:38;99140.06;;;-6.30;65.94
14242;BME280;7205;50.864;12.766;2022-12-18T08:17:05;99145.81;;;-6.21;66.14
14242;BME280;7205;50.864;12.766;2022-12-18T08:19:33;99155.03;;;-6.12;66.00
14242;BME280;7205;50.864;12.766;2022-12-18T08:22:02;99158.31;;;-6.06;66.50
14242;BME280;7205;50.864;12.766;2022-12-18T08:24:29;99153.03;;;-6.00;66.33
14242;BME280;7205;50.864;12.766;2022-12-18T08:26:56;99163.13;;;-5.92;66.67
14242;BME280;7205;50.864;12.766;2022-12-18T08:29:25;99153.59;;;-5.89;66.69
14242;BME280;7205;50.864;12.766;2022-12-18T08:31:55;99159.22;;;-5.75;66.85
14242;BME280;7205;50.864;12.766;2022-12-18T08:34:21;99158.22;;;-5.68;67.04
14242;BME280;7205;50.864;12.766;2022-12-18T08:36:50;99155.38;;;-5.59;67.42
14242;BME280;7205;50.864;12.766;2022-12-18T08:39:17;99156.03;;;-5.51;67.01
14242;BME280;7205;50.864;12.766;2022-12-18T08:41:44;99151.56;;;-5.44;67.30
14242;BME280;7205;50.864;12.766;2022-12-18T08:44:33;99146.22;;;-5.37;67.46
14242;BME280;7205;50.864;12.766;2022-12-18T08:47:05;99158.00;;;-5.28;67.89
14242;BME280;7205;50.864;12.766;2022-12-18T08:49:33;99164.66;;;-5.20;67.50
14242;BME280;7205;50.864;12.766;2022-12-18T08:52:00;99158.50;;;-5.14;67.71
14242;BME280;7205;50.864;12.766;2022-12-18T08:54:28;99154.06;;;-5.09;67.97
14242;BME280;7205;50.864;12.766;2022-12-18T08:56:55;99161.59;;;-5.03;67.91
14242;BME280;7205;50.864;12.766;2022-12-18T08:59:22;99157.13;;;-4.96;68.22
14242;BME280;7205;50.864;12.766;2022-12-18T09:01:53;99157.84;;;-4.91;68.22
14242;BME280;7205;50.864;12.766;2022-12-18T09:04:20;99162.78;;;-4.84;68.21
14242;BME280;7205;50.864;12.766;2022-12-18T09:06:47;99170.34;;;-4.78;68.48
14242;BME280;7205;50.864;12.766;2022-12-18T09:09:13;99165.91;;;-4.73;68.61
14242;BME280;7205;50.864;12.766;2022-12-18T09:11:40;99163.13;;;-4.67;68.55
14242;BME280;7205;50.864;12.766;2022-12-18T09:14:09;99159.50;;;-4.60;68.34
14242;BME280;7205;50.864;12.766;2022-12-18T09:16:36;99161.06;;;-4.54;68.59
14242;BME280;7205;50.864;12.766;2022-12-18T09:19:04;99168.59;;;-4.48;68.62
14242;BME280;7205;50.864;12.766;2022-12-18T09:21:32;99165.00;;;-4.43;68.74
14242;BME280;7205;50.864;12.766;2022-12-18T09:24:03;99169.91;;;-4.35;68.79
14242;BME280;7205;50.864;12.766;2022-12-18T09:26:31;99168.88;;;-4.30;68.86
14242;BME280;7205;50.864;12.766;2022-12-18T09:28:57;99173.81;;;-4.22;68.76
14242;BME280;7205;50.864;12.766;2022-12-18T09:31:24;99166.75;;;-4.16;69.34
14242;BME280;7205;50.864;12.766;2022-12-18T09:33:55;99161.28;;;-4.07;69.41
14242;BME280;7205;50.864;12.766;2022-12-18T09:36:23;99155.91;;;-3.99;69.28
14242;BME280;7205;50.864;12.766;2022-12-18T09:38:50;99152.19;;;-3.91;69.66
14242;BME280;7205;50.864;12.766;2022-12-18T09:41:36;99145.91;;;-3.82;70.10
14242;BME280;7205;50.864;12.766;2022-12-18T09:44:13;99150.72;;;-3.73;70.34
14242;BME280;7205;50.864;12.766;2022-12-18T09:46:45;99146.22;;;-3.66;70.18
14242;BME280;7205;50.864;12.766;2022-12-18T09:49:16;99138.19;;;-3.57;70.32
14242;BME280;7205;50.864;12.766;2022-12-18T09:51:47;99137.97;;;-3.51;70.57
14242;BME280;7205;50.864;12.766;2022-12-18T09:54:20;99134.28;;;-3.44;70.86
14242;BME280;7205;50.864;12.766;2022-12-18T09:56:48;99119.47;;;-3.39;70.86
14242;BME280;7205;50.864;12.766;2022-12-18T09:59:22;99128.63;;;-3.31;70.85
14242;BME280;7205;50.864;12.766;2022-12-18T10:01:50;99119.06;;;-3.27;71.01
14242;BME280;7205;50.864;12.766;2022-12-18T10:04:17;99116.16;;;-3.18;70.87
14242;BME280;7205;50.864;12.766;2022-12-18T10:06:51;99115.03;;;-3.11;71.02
14242;BME280;7205;50.864;12.766;2022-12-18T10:09:27;99108.81;;;-3.06;70.77
14242;BME280;7205;50.864;12.766;2022-12-18T10:12:02;99107.69;;;-2.99;71.08
14242;BME280;7205;50.864;12.766;2022-12-18T10:14:38;99104.00;;;-2.92;71.33
14242;BME280;7205;50.864;12.766;2022-12-18T10:17:16;99098.53;;;-2.84;71.17
14242;BME280;7205;50.864;12.766;2022-12-18T10:19:48;99095.00;;;-2.82;71.35
14242;BME280;7205;50.864;12.766;2022-12-18T10:22:25;99099.75;;;-2.71;71.16
14242;BME280;7205;50.864;12.766;2022-12-18T10:25:00;99084.03;;;-2.65;71.26
14242;BME280;7205;50.864;12.766;2022-12-18T10:27:28;99085.50;;;-2.60;71.35
14242;BME280;7205;50.864;12.766;2022-12-18T10:29:56;99070.63;;;-2.53;71.18
14242;BME280;7205;50.864;12.766;2022-12-18T10:32:25;99074.59;;;-2.44;71.44
14242;BME280;7205;50.864;12.766;2022-12-18T10:34:54;99065.81;;;-2.40;71.23
14242;BME280;7205;50.864;12.766;2022-12-18T10:37:25;99061.09;;;-2.31;71.28
14242;BME280;7205;50.864;12.766;2022-12-18T10:40:07;99062.63;;;-2.25;71.22
14242;BME280;7205;50.864;12.766;2022-12-18T10:42:35;99066.78;;;-2.21;71.10
14242;BME280;7205;50.864;12.766;2022-12-18T10:45:09;99075.91;;;-2.13;70.98
14242;BME280;7205;50.864;12.766;2022-12-18T10:47:42;99062.72;;;-2.07;70.80
14242;BME280;7205;50.864;12.766;2022-12-18T10:50:19;99064.22;;;-2.01;70.43
14242;BME280;7205;50.864;12.766;2022-12-18T10:52:54;99069.13;;;-1.95;70.35
14242;BME280;7205;50.864;12.766;2022-12-18T10:55:21;99071.47;;;-1.89;70.30
14242;BME280;7205;50.864;12.766;2022-12-18T10:57:49;99067.84;;;-1.85;69.92
14242;BME280;7205;50.864;12.766;2022-12-18T11:00:24;99065.06;;;-1.81;69.98
14242;BME280;7205;50.864;12.766;2022-12-18T11:02:53;99058.88;;;-1.77;69.70
14242;BME280;7205;50.864;12.766;2022-12-18T11:05:26;99051.88;;;-1.75;69.20
14242;BME280;7205;50.864;12.766;2022-12-18T11:07:56;99043.97;;;-1.72;68.86
14242;BME280;7205;50.864;12.766;2022-12-18T11:10:28;99046.38;;;-1.67;68.87
14242;BME280;7205;50.864;12.766;2022-12-18T11:12:55;99045.41;;;-1.65;68.57
14242;BME280;7205;50.864;12.766;2022-12-18T11:15:26;99037.50;;;-1.62;68.57
14242;BME280;7205;50.864;12.766;2022-12-18T11:17:54;99039.94;;;-1.59;68.36
14242;BME280;7205;50.864;12.766;2022-12-18T11:20:31;99032.81;;;-1.54;68.56
14242;BME280;7205;50.864;12.766;2022-12-18T11:23:12;99040.34;;;-1.48;68.38
14242;BME280;7205;50.864;12.766;2022-12-18T11:25:39;99048.81;;;-1.44;68.13
14242;BME280;7205;50.864;12.766;2022-12-18T11:28:29;99042.44;;;-1.37;68.13
14242;BME280;7205;50.864;12.766;2022-12-18T11:31:23;99045.75;;;-1.34;68.02
14242;BME280;7205;50.864;12.766;2022-12-18T11:33:55;99042.91;;;-1.27;67.91
14242;BME280;7205;50.864;12.766;2022-12-18T11:36:23;99038.44;;;-1.24;67.46
14242;BME280;7205;50.864;12.766;2022-12-18T11:38:55;99043.41;;;-1.19;67.47
14242;BME280;7205;50.864;12.766;2022-12-18T11:41:28;99051.94;;;-1.17;67.11
14242;BME280;7205;50.864;12.766;2022-12-18T11:44:13;99061.06;;;-1.09;67.25
14242;BME280;7205;50.864;12.766;2022-12-18T11:46:46;99064.47;;;-1.08;67.07
14242;BME280;7205;50.864;12.766;2022-12-18T11:49:23;99062.59;;;-1.05;66.95
14242;BME280;7205;50.864;12.766;2022-12-18T11:51:58;99065.97;;;-1.03;66.93
14242;BME280;7205;50.864;12.766;2022-12-18T11:54:31;99069.34;;;-1.01;66.73
14242;BME280;7205;50.864;12.766;2022-12-18T11:57:03;99082.00;;;-0.95;66.66
14242;BME280;7205;50.864;12.766;2022-12-18T11:59:41;99078.38;;;-0.91;66.97
14242;BME280;7205;50.864;12.766;2022-12-18T12:02:25;99077.31;;;-0.87;66.94
14242;BME280;7205;50.864;12.766;2022-12-18T12:08:01;99080.06;;;-0.71;66.40
14242;BME280;7205;50.864;12.766;2022-12-18T12:10:49;99071.09;;;-0.64;66.43
14242;BME280;7205;50.864;12.766;2022-12-18T12:13:32;99063.16;;;-0.61;66.29
14242;BME280;7205;50.864;12.766;2022-12-18T12:16:21;99068.75;;;-0.52;65.97
14242;BME280;7205;50.864;12.766;2022-12-18T12:19:15;99054.50;;;-0.43;66.08
14242;BME280;7205;50.864;12.766;2022-12-18T12:21:49;99061.09;;;-0.36;65.51
14242;BME280;7205;50.864;12.766;2022-12-18T12:24:29;99063.41;;;-0.30;65.35
14242;BME280;7205;50.864;12.766;2022-12-18T12:27:08;99058.81;;;-0.25;64.86
14242;BME280;7205;50.864;12.766;2022-12-18T12:29:46;99048.16;;;-0.19;64.76
14242;BME280;7205;50.864;12.766;2022-12-18T12:32:24;99059.94;;;-0.12;64.59
14242;BME280;7205;50.864;12.766;2022-12-18T12:35:03;99052.78;;;-0.07;64.46
14242;BME280;7205;50.864;12.766;2022-12-18T12:41:54;99046.06;;;0.06;63.81
14242;BME280;7205;50.864;12.766;2022-12-18T12:44:43;99032.06;;;0.09;63.58
14242;BME280;7205;50.864;12.766;2022-12-18T12:47:15;99032.84;;;0.11;63.12
14242;BME280;7205;50.864;12.766;2022-12-18T12:49:46;99036.97;;;0.15;63.24
14242;BME280;7205;50.864;12.766;2022-12-18T12:52:20;99028.19;;;0.17;63.13
14242;BME280;7205;50.864;12.766;2022-12-18T12:54:50;99021.75;;;0.24;63.26
14242;BME280;7205;50.864;12.766;2022-12-18T12:57:24;99024.81;;;0.32;62.65
14242;BME280;7205;50.864;12.766;2022-12-18T13:00:10;99028.94;;;0.36;62.72
14242;BME280;7205;50.864;12.766;2022-12-18T13:02:47;99021.16;;;0.36;62.31
14242;BME280;7205;50.864;12.766;2022-12-18T13:05:23;99025.13;;;0.43;62.19
14242;BME280;7205;50.864;12.766;2022-12-18T13:08:23;99027.63;;;0.45;61.97
14242;BME280;7205;50.864;12.766;2022-12-18T13:10:57;99028.47;;;0.45;61.58
14242;BME280;7205;50.864;12.766;2022-12-18T13:13:52;99021.84;;;0.40;61.39
14242;BME280;7205;50.864;12.766;2022-12-18T13:16:46;99028.53;;;0.44;61.26
14242;BME280;7205;50.864;12.766;2022-12-18T13:19:23;99029.31;;;0.46;60.58
14242;BME280;7205;50.864;12.766;2022-12-18T13:21:58;99009.69;;;0.40;60.31
14242;BME280;7205;50.864;12.766;2022-12-18T13:24:48;99003.72;;;0.38;59.63
14242;BME280;7205;50.864;12.766;2022-12-18T13:28:50;99010.75;;;0.36;59.41
14242;BME280;7205;50.864;12.766;2022-12-18T13:34:42;98991.75;;;0.19;58.24